Hauptseite
METAR-TAF:

METAR-TAF

Flughäfen :

Flughafen Nouakchott-Oumtounsy

Nouakchott, Mauretanien

Breite: 18-18-36N, Länge: 015-58-11W, Höhe: 3 m

Beobachtung

Neuester Wetterbericht von vor 36 Minuten, um 00:30 UTC
Wind 10 kt aus Nord/Nordwest
Temperatur 23°C
Luftfeuchtigkeit 89%
Luftdruck 1011 hPa
Sichtweite 10 km oder mehr
keine Wolken unter 1500 m und keine Kumulonimbus oder Gewitterwolken

METAR: GQNO 190030Z 33010KT CAVOK 23/21 Q1011 NOSIG

Zeit: 01:06 (01:06 UTC)

Prognose

Neuester Wetterbericht von vor 8 Stunden und 6 Minuten, um 17:00 UTC
Gültige Prognose vom 18 um 18 UTC bis 19 um 24 UTC
Wind 13 kt aus Nordwest
Sichtweite: 7000 m
Zeitweise
vom 19 um 10 UTC bis 19 um 14 UTC
Wind 10 kt aus Nord/Nordost

TAF: GQNO 181700Z 1818/1924 32013KT 7000 NSC TEMPO 1910/1914 03010KT

Wetterbeobachtungen und Prognosen von mehr als 4000 Flughäfen (METAR und TAF Bericht).

Die verfügbaren Stationen werden durch gelbe und rote Markierungen auf der Karte dargestellt.

Führen Sie die Maus auf sie, um den Namen der Station zu sehen.

Darauf klicken, um die Beobachtung von Wetterbeobachtungen und Prognosen zu sehen.

Um die Karte zu ändern : klicken Sie auf den grünen Tasten mit einem schwarzen Kreuz Zum Vergrößern, auf den grünen Button mit einem Gedankenstrich zu verkleinern, oder auf die grünen Pfeile für benachbarte Karten.


METAR-TAF: